Time;durP1;ratioP1;P1;durP2;ratioP2;P2;SDS_P1;SDS_P2;PMS_P1;PMS_P2;Temp;Humidity;BMP_temperature;BMP_pressure;BME280_temperature;BME280_humidity;BME280_pressure;Samples;Min_cycle;Max_cycle;Signal;HPM_P1;HPM_P2
2021/05/14 00:00:34;;;;;;;;;;;;;;;14.20;70.09;99351.03;5012642;28;19922;-66
2021/05/14 00:03:01;;;;;;;;;;;;;;;14.22;69.97;99345.06;5012731;28;19932;-66
2021/05/14 00:05:27;;;;;;;;;;;;;;;14.21;69.97;99338.66;5012627;28;20290;-66
2021/05/14 00:07:56;;;;;;;;;;;;;;;14.23;69.76;99343.88;5013349;28;19921;-66
2021/05/14 00:10:23;;;;;;;;;;;;;;;14.27;69.75;99346.75;5015600;28;19937;-66
2021/05/14 00:12:50;;;;;;;;;;;;;;;14.28;69.78;99338.00;5016630;28;20298;-66
2021/05/14 00:15:17;;;;;;;;;;;;;;;14.30;69.34;99344.03;5015502;28;20367;-66
2021/05/14 00:17:43;;;;;;;;;;;;;;;14.25;69.61;99347.13;5016324;28;19929;-66
2021/05/14 00:20:10;;;;;;;;;;;;;;;14.30;69.37;99343.19;5016342;28;19928;-66
2021/05/14 00:22:37;;;;;;;;;;;;;;;14.22;69.51;99353.47;5016026;28;19921;-66
2021/05/14 00:25:04;;;;;;;;;;;;;;;14.18;69.69;99352.56;5016302;28;19921;-66
2021/05/14 00:27:34;;;;;;;;;;;;;;;14.16;69.87;99343.72;5016644;28;19925;-66
2021/05/14 00:30:01;;;;;;;;;;;;;;;14.09;70.16;99343.53;5016013;28;19925;-66
2021/05/14 00:32:27;;;;;;;;;;;;;;;13.96;70.49;99346.50;5016111;28;19922;-66
2021/05/14 00:34:53;;;;;;;;;;;;;;;13.96;70.71;99346.50;5015368;28;20394;-66
2021/05/14 00:37:20;;;;;;;;;;;;;;;13.98;70.62;99338.53;5016124;28;19944;-66
2021/05/14 00:39:46;;;;;;;;;;;;;;;13.85;71.33;99353.00;5015694;28;20028;-65
2021/05/14 00:42:13;;;;;;;;;;;;;;;13.88;70.60;99346.66;5016075;28;19921;-65
2021/05/14 00:44:45;;;;;;;;;;;;;;;13.90;70.79;99353.56;5015608;28;19993;-65
2021/05/14 00:47:12;;;;;;;;;;;;;;;13.92;70.57;99353.16;5015661;28;19925;-65
2021/05/14 00:49:39;;;;;;;;;;;;;;;13.89;70.58;99353.91;5015465;28;19929;-66
2021/05/14 00:52:08;;;;;;;;;;;;;;;13.87;70.51;99347.84;5016307;28;19937;-66
2021/05/14 00:54:35;;;;;;;;;;;;;;;13.85;70.69;99355.81;5014636;28;19922;-66
2021/05/14 00:57:02;;;;;;;;;;;;;;;13.85;70.50;99350.22;5015379;28;20378;-66
2021/05/14 00:59:30;;;;;;;;;;;;;;;13.84;70.62;99351.38;5015765;28;19928;-66
2021/05/14 01:01:57;;;;;;;;;;;;;;;13.78;71.03;99345.25;5016108;28;19921;-66
2021/05/14 01:04:26;;;;;;;;;;;;;;;13.78;70.75;99346.06;5015277;28;19928;-66
2021/05/14 01:06:53;;;;;;;;;;;;;;;13.76;70.75;99348.41;5015234;28;20393;-65
2021/05/14 01:09:20;;;;;;;;;;;;;;;13.80;70.88;99348.50;5015473;28;19936;-65
2021/05/14 01:11:46;;;;;;;;;;;;;;;13.80;70.57;99351.31;5015251;28;19936;-65
2021/05/14 01:14:13;;;;;;;;;;;;;;;13.83;70.91;99353.38;5014861;28;19921;-65
2021/05/14 01:16:39;;;;;;;;;;;;;;;13.85;70.77;99353.81;5014501;28;19953;-65
2021/05/14 01:19:07;;;;;;;;;;;;;;;13.88;70.65;99355.06;5015164;28;19926;-65
2021/05/14 01:21:34;;;;;;;;;;;;;;;13.91;70.67;99355.16;5014377;28;20366;-65
2021/05/14 01:24:01;;;;;;;;;;;;;;;13.95;70.74;99356.06;5014936;28;19952;-65
2021/05/14 01:26:28;;;;;;;;;;;;;;;13.98;70.67;99348.91;5014606;28;19921;-65
2021/05/14 01:28:54;;;;;;;;;;;;;;;14.03;70.43;99348.63;5015046;28;19921;-66
2021/05/14 01:31:21;;;;;;;;;;;;;;;14.02;70.67;99350.59;5015466;28;19925;-66
2021/05/14 01:33:50;;;;;;;;;;;;;;;14.04;70.16;99358.66;5014337;28;19928;-66
2021/05/14 01:36:18;;;;;;;;;;;;;;;14.04;70.14;99353.03;5014927;28;19928;-66
2021/05/14 01:38:50;;;;;;;;;;;;;;;14.06;69.88;99353.50;5014788;28;19922;-66
2021/05/14 01:41:16;;;;;;;;;;;;;;;14.04;69.95;99353.03;5014647;28;19928;-66
2021/05/14 01:43:43;;;;;;;;;;;;;;;13.98;70.03;99349.75;5014651;28;19921;-66
2021/05/14 01:46:09;;;;;;;;;;;;;;;13.97;70.22;99350.91;5014976;28;20251;-66
2021/05/14 01:48:36;;;;;;;;;;;;;;;13.97;70.09;99348.09;5014325;28;19922;-65
2021/05/14 01:51:07;;;;;;;;;;;;;;;13.97;70.11;99338.91;5014842;28;20355;-65
2021/05/14 01:53:34;;;;;;;;;;;;;;;13.96;70.20;99345.66;5014034;28;19928;-65
2021/05/14 01:56:01;;;;;;;;;;;;;;;13.97;70.05;99338.91;5014971;28;20359;-66
2021/05/14 01:58:28;;;;;;;;;;;;;;;13.98;69.79;99337.72;5014818;28;19921;-66
2021/05/14 02:00:54;;;;;;;;;;;;;;;13.95;69.82;99342.06;5014561;28;20270;-66
2021/05/14 02:03:21;;;;;;;;;;;;;;;13.91;69.53;99331.97;5013944;28;19921;-66
2021/05/14 02:05:47;;;;;;;;;;;;;;;13.92;69.84;99330.78;5013863;28;19921;-66
2021/05/14 02:08:14;;;;;;;;;;;;;;;13.90;69.63;99327.53;5014012;28;19921;-66
2021/05/14 02:10:40;;;;;;;;;;;;;;;13.88;70.16;99329.88;5014346;28;19922;-66
2021/05/14 02:13:08;;;;;;;;;;;;;;;13.87;69.79;99329.06;5014404;28;19921;-66
2021/05/14 02:15:34;;;;;;;;;;;;;;;13.88;69.39;99333.50;5013311;28;20362;-66
2021/05/14 02:18:01;;;;;;;;;;;;;;;13.86;69.45;99329.44;5013631;28;20401;-66
2021/05/14 02:20:27;;;;;;;;;;;;;;;13.84;69.35;99337.38;5014434;28;20239;-66
2021/05/14 02:22:54;;;;;;;;;;;;;;;13.78;70.15;99334.88;5014673;28;19921;-66
2021/05/14 02:25:20;;;;;;;;;;;;;;;13.75;70.04;99323.59;5013331;28;19921;-66
2021/05/14 02:27:47;;;;;;;;;;;;;;;13.73;70.08;99329.56;5014146;28;20355;-66
2021/05/14 02:30:15;;;;;;;;;;;;;;;13.70;70.06;99335.06;5014150;28;20279;-66
2021/05/14 02:32:44;;;;;;;;;;;;;;;13.67;69.97;99333.81;5013707;28;19921;-66
2021/05/14 02:35:11;;;;;;;;;;;;;;;13.62;69.90;99327.69;5013603;28;19928;-66
2021/05/14 02:37:38;;;;;;;;;;;;;;;13.65;69.82;99330.56;5013945;28;19928;-66
2021/05/14 02:40:05;;;;;;;;;;;;;;;13.64;70.00;99334.53;5013950;28;19927;-66
2021/05/14 02:42:32;;;;;;;;;;;;;;;13.61;69.95;99329.66;5013118;28;19922;-66
2021/05/14 02:44:58;;;;;;;;;;;;;;;13.58;69.59;99333.97;5014387;28;19944;-66
2021/05/14 02:47:26;;;;;;;;;;;;;;;13.55;69.75;99337.53;5013492;28;19997;-66
2021/05/14 02:49:53;;;;;;;;;;;;;;;13.55;69.62;99343.13;5013764;28;19928;-65
2021/05/14 02:52:19;;;;;;;;;;;;;;;13.56;69.53;99338.31;5013581;28;19921;-65
2021/05/14 02:54:46;;;;;;;;;;;;;;;13.48;69.83;99331.75;5013923;28;19921;-65
2021/05/14 02:57:13;;;;;;;;;;;;;;;13.51;69.74;99335.81;5014217;28;19925;-65
2021/05/14 02:59:39;;;;;;;;;;;;;;;13.51;69.92;99342.22;5013316;28;19921;-65
2021/05/14 03:02:07;;;;;;;;;;;;;;;13.52;69.98;99343.03;5012854;28;19930;-65
2021/05/14 03:04:34;;;;;;;;;;;;;;;13.52;69.45;99338.25;5013788;28;19928;-65
2021/05/14 03:07:01;;;;;;;;;;;;;;;13.48;69.88;99339.31;5013303;28;20363;-65
2021/05/14 03:09:28;;;;;;;;;;;;;;;13.52;69.48;99343.03;5013506;28;20294;-65
2021/05/14 03:11:55;;;;;;;;;;;;;;;13.51;69.91;99341.41;5013527;28;19922;-65
2021/05/14 03:14:21;;;;;;;;;;;;;;;13.51;69.65;99338.63;5013577;28;19922;-65
2021/05/14 03:16:48;;;;;;;;;;;;;;;13.51;69.56;99347.81;5013073;28;19921;-65
2021/05/14 03:19:14;;;;;;;;;;;;;;;13.48;70.20;99340.16;5013035;28;19922;-66
2021/05/14 03:21:42;;;;;;;;;;;;;;;13.47;69.79;99343.31;5013503;28;20359;-66
2021/05/14 03:24:14;;;;;;;;;;;;;;;13.51;69.75;99347.00;5012231;28;19928;-65
2021/05/14 03:26:41;;;;;;;;;;;;;;;13.52;69.48;99348.63;4993542;28;19922;-65
2021/05/14 03:29:07;;;;;;;;;;;;;;;13.53;69.97;99344.66;4994043;28;20386;-65
2021/05/14 03:31:34;;;;;;;;;;;;;;;13.48;69.84;99336.53;4993785;28;19921;-65
2021/05/14 03:34:00;;;;;;;;;;;;;;;13.42;69.78;99341.59;4993084;28;19921;-66
2021/05/14 03:36:27;;;;;;;;;;;;;;;13.47;69.97;99346.09;4993563;28;19921;-65
2021/05/14 03:38:56;;;;;;;;;;;;;;;13.49;69.33;99352.16;4993205;28;19928;-65
2021/05/14 03:41:31;;;;;;;;;;;;;;;13.48;69.51;99347.72;4993747;28;19933;-65
2021/05/14 03:43:58;;;;;;;;;;;;;;;13.39;69.92;99348.69;4994407;28;19922;-66
2021/05/14 03:46:26;;;;;;;;;;;;;;;13.40;69.94;99353.13;4997960;28;19929;-66
2021/05/14 03:48:53;;;;;;;;;;;;;;;13.44;69.96;99356.03;4997261;28;19932;-66
2021/05/14 03:51:19;;;;;;;;;;;;;;;13.45;69.97;99348.44;4997510;28;19921;-65
2021/05/14 03:53:46;;;;;;;;;;;;;;;13.46;69.96;99352.84;4996940;28;19922;-65
2021/05/14 03:56:13;;;;;;;;;;;;;;;13.46;69.71;99347.25;4997214;28;19929;-65
2021/05/14 03:58:40;;;;;;;;;;;;;;;13.45;69.84;99356.84;4997602;28;19922;-65
2021/05/14 04:01:06;;;;;;;;;;;;;;;13.48;69.32;99354.16;4997424;28;20355;-65
2021/05/14 04:03:33;;;;;;;;;;;;;;;13.44;70.00;99355.19;4997043;28;19933;-65
2021/05/14 04:05:59;;;;;;;;;;;;;;;13.43;69.77;99356.38;4997166;28;19929;-65
2021/05/14 04:08:26;;;;;;;;;;;;;;;13.44;69.81;99360.78;4997291;28;20375;-65
2021/05/14 04:11:23;;;;;;;;;;;;;;;13.51;69.47;99358.19;4997467;28;19921;-65
2021/05/14 04:16:37;;;;;;;;;;;;;;;13.49;69.50;99363.34;4997305;28;19922;-65
2021/05/14 04:19:04;;;;;;;;;;;;;;;13.56;68.98;99355.91;4996524;28;19929;-65
2021/05/14 04:21:33;;;;;;;;;;;;;;;13.64;68.74;99359.72;4996634;28;19928;-65
2021/05/14 04:24:00;;;;;;;;;;;;;;;13.69;68.53;99353.03;4996212;28;19929;-66
2021/05/14 04:26:27;;;;;;;;;;;;;;;13.74;68.01;99367.56;5013438;28;19921;-66
2021/05/14 04:28:54;;;;;;;;;;;;;;;13.74;68.21;99364.75;5015570;28;20326;-66
2021/05/14 04:31:20;;;;;;;;;;;;;;;13.78;68.25;99364.84;5016155;28;19928;-65
2021/05/14 04:33:47;;;;;;;;;;;;;;;13.85;68.04;99362.22;5015795;28;19928;-65
2021/05/14 04:36:14;;;;;;;;;;;;;;;13.88;68.19;99363.47;5015083;28;20282;-65
2021/05/14 04:38:40;;;;;;;;;;;;;;;13.93;67.84;99360.41;5015929;28;19928;-65
2021/05/14 04:41:07;;;;;;;;;;;;;;;14.01;67.58;99365.78;5015240;28;20373;-66
2021/05/14 04:43:33;;;;;;;;;;;;;;;14.09;67.51;99357.53;5015410;28;19925;-66
2021/05/14 04:46:00;;;;;;;;;;;;;;;14.19;67.31;99359.78;5014962;28;20287;-66
2021/05/14 04:48:27;;;;;;;;;;;;;;;14.20;67.17;99356.63;5015176;28;20282;-66
2021/05/14 04:50:53;;;;;;;;;;;;;;;14.29;67.20;99359.22;5015328;28;19921;-66
2021/05/14 04:53:22;;;;;;;;;;;;;;;14.29;67.13;99366.81;5015659;28;19921;-66
2021/05/14 04:55:49;;;;;;;;;;;;;;;14.44;66.58;99365.94;5014523;28;20013;-66
2021/05/14 04:58:15;;;;;;;;;;;;;;;14.56;65.63;99363.00;5014973;28;19922;-64
2021/05/14 05:00:42;;;;;;;;;;;;;;;14.59;65.63;99361.47;5015485;28;20294;-65
2021/05/14 05:03:09;;;;;;;;;;;;;;;14.61;65.53;99371.16;5015060;28;19922;-65
2021/05/14 05:05:36;;;;;;;;;;;;;;;14.66;65.08;99364.44;5014368;28;19921;-65
2021/05/14 05:08:03;;;;;;;;;;;;;;;14.77;64.88;99373.03;5015294;28;20398;-66
2021/05/14 05:10:29;;;;;;;;;;;;;;;14.89;64.58;99372.06;5015196;28;19928;-65
2021/05/14 05:12:55;;;;;;;;;;;;;;;14.88;64.02;99365.66;5014376;28;19922;-65
2021/05/14 05:15:22;;;;;;;;;;;;;;;14.87;64.25;99378.06;5014838;28;19921;-65
2021/05/14 05:17:49;;;;;;;;;;;;;;;14.94;64.00;99366.16;5015169;28;19929;-65
2021/05/14 05:20:18;;;;;;;;;;;;;;;15.02;64.14;99367.94;5015159;28;19921;-65
2021/05/14 05:22:45;;;;;;;;;;;;;;;15.08;63.81;99374.06;5014639;28;19921;-65
2021/05/14 05:25:12;;;;;;;;;;;;;;;15.09;63.40;99378.47;5013958;28;20283;-65
2021/05/14 05:27:38;;;;;;;;;;;;;;;15.07;63.72;99378.03;5015133;28;19928;-65
2021/05/14 05:30:05;;;;;;;;;;;;;;;15.02;63.66;99377.16;5014935;28;19921;-65
2021/05/14 05:32:32;;;;;;;;;;;;;;;14.99;63.85;99380.72;5014754;28;19921;-65
2021/05/14 05:34:58;;;;;;;;;;;;;;;14.99;63.83;99385.47;5013550;28;19921;-65
2021/05/14 05:37:25;;;;;;;;;;;;;;;15.04;63.86;99387.19;5014397;28;19921;-65
2021/05/14 05:39:52;;;;;;;;;;;;;;;15.13;63.33;99384.97;5014471;28;19925;-65
2021/05/14 05:42:19;;;;;;;;;;;;;;;15.12;62.80;99380.50;5014906;28;19925;-65
2021/05/14 05:44:45;;;;;;;;;;;;;;;15.17;63.21;99391.44;5013762;28;19921;-65
2021/05/14 05:47:11;;;;;;;;;;;;;;;15.22;63.00;99388.31;5014360;28;19922;-65
2021/05/14 05:49:38;;;;;;;;;;;;;;;15.25;62.75;99390.41;5014254;28;19921;-65
2021/05/14 05:52:05;;;;;;;;;;;;;;;15.35;61.91;99391.75;5013861;28;19921;-65
2021/05/14 05:54:32;;;;;;;;;;;;;;;15.38;62.15;99394.63;5014246;28;19937;-65
2021/05/14 05:57:00;;;;;;;;;;;;;;;15.47;62.20;99393.59;5014626;28;19928;-65
2021/05/14 05:59:27;;;;;;;;;;;;;;;15.47;61.87;99393.59;5014413;28;19921;-65
2021/05/14 06:01:54;;;;;;;;;;;;;;;15.58;61.91;99400.19;5013340;28;19948;-65
2021/05/14 06:04:22;;;;;;;;;;;;;;;15.65;61.73;99391.09;5014407;28;19921;-65
2021/05/14 06:06:49;;;;;;;;;;;;;;;15.84;61.15;99407.88;5014200;28;19928;-66
2021/05/14 06:09:18;;;;;;;;;;;;;;;16.01;60.61;99400.94;5014095;28;19928;-66
2021/05/14 06:11:46;;;;;;;;;;;;;;;16.05;60.03;99407.41;5013879;28;19921;-66
2021/05/14 06:14:15;;;;;;;;;;;;;;;16.14;59.55;99410.75;5014569;28;20383;-66
2021/05/14 06:16:44;;;;;;;;;;;;;;;16.17;59.12;99412.81;5013420;28;19928;-66
2021/05/14 06:19:14;;;;;;;;;;;;;;;16.24;58.68;99409.31;5010220;28;19936;-66
2021/05/14 06:21:45;;;;;;;;;;;;;;;16.23;58.61;99411.31;5013349;28;19921;-66
2021/05/14 06:24:13;;;;;;;;;;;;;;;16.29;58.51;99410.97;5013078;28;19921;-66
2021/05/14 06:26:40;;;;;;;;;;;;;;;16.33;58.22;99411.84;4974854;28;19929;-66
2021/05/14 06:29:07;;;;;;;;;;;;;;;16.39;58.39;99415.94;4973863;28;19929;-66
2021/05/14 06:31:34;;;;;;;;;;;;;;;16.56;57.98;99415.38;4974945;28;19949;-66
2021/05/14 06:34:00;;;;;;;;;;;;;;;16.69;57.61;99423.56;4974262;28;19938;-66
2021/05/14 06:36:27;;;;;;;;;;;;;;;16.82;56.90;99422.97;4972531;28;19945;-66
2021/05/14 06:38:53;;;;;;;;;;;;;;;16.96;56.71;99416.72;4974673;28;19949;-66
2021/05/14 06:41:20;;;;;;;;;;;;;;;17.11;56.02;99425.31;4974568;28;20260;-66
2021/05/14 06:43:46;;;;;;;;;;;;;;;17.45;54.72;99423.28;4974761;28;20383;-66
2021/05/14 06:46:13;;;;;;;;;;;;;;;17.71;54.25;99421.53;4974624;28;20364;-66
2021/05/14 06:48:41;;;;;;;;;;;;;;;17.94;54.09;99408.06;4974433;28;19922;-66
2021/05/14 06:51:10;;;;;;;;;;;;;;;18.36;52.95;99418.00;4974587;28;19929;-66
2021/05/14 06:53:37;;;;;;;;;;;;;;;18.41;51.52;99423.28;4968595;28;19929;-66
2021/05/14 06:56:04;;;;;;;;;;;;;;;18.57;51.14;99416.53;4972111;28;20359;-66
2021/05/14 06:58:31;;;;;;;;;;;;;;;18.77;51.68;99417.03;4969489;28;19921;-66
2021/05/14 07:00:57;;;;;;;;;;;;;;;18.83;50.22;99418.28;4970954;28;19922;-66
2021/05/14 07:03:25;;;;;;;;;;;;;;;18.89;50.42;99422.34;4971513;28;19930;-66
2021/05/14 07:05:51;;;;;;;;;;;;;;;18.95;50.38;99417.13;4971196;28;19922;-66
2021/05/14 07:08:18;;;;;;;;;;;;;;;19.05;49.40;99416.38;4971938;28;19929;-66
2021/05/14 07:10:44;;;;;;;;;;;;;;;19.15;50.03;99421.25;4972497;28;19922;-66
2021/05/14 07:13:11;;;;;;;;;;;;;;;19.23;49.61;99411.59;4974661;28;19929;-67
2021/05/14 07:15:38;;;;;;;;;;;;;;;19.47;48.40;99414.88;4973550;28;19929;-65
2021/05/14 07:18:04;;;;;;;;;;;;;;;19.59;47.52;99413.66;4991681;28;20359;-65
2021/05/14 07:20:33;;;;;;;;;;;;;;;19.58;47.70;99420.53;4983699;28;19922;-65
2021/05/14 07:22:59;;;;;;;;;;;;;;;19.62;48.12;99415.69;4975638;28;20399;-65
2021/05/14 07:25:26;;;;;;;;;;;;;;;19.62;46.66;99427.00;4995593;28;20270;-66
2021/05/14 07:27:52;;;;;;;;;;;;;;;19.53;45.27;99418.91;5016714;28;19932;-66
2021/05/14 07:30:19;;;;;;;;;;;;;;;19.64;45.28;99416.91;5016553;28;19921;-66
2021/05/14 07:32:46;;;;;;;;;;;;;;;20.36;43.14;99427.41;5016054;28;19944;-66
2021/05/14 07:35:12;;;;;;;;;;;;;;;20.78;42.54;99417.22;5017506;28;19928;-66
2021/05/14 07:37:40;;;;;;;;;;;;;;;21.56;40.72;99426.56;5015774;28;19928;-66
2021/05/14 07:40:07;;;;;;;;;;;;;;;22.19;39.91;99427.28;5017018;28;19929;-64
2021/05/14 07:42:33;;;;;;;;;;;;;;;22.74;38.72;99421.88;5016720;28;19925;-66
2021/05/14 07:45:00;;;;;;;;;;;;;;;23.48;37.16;99416.50;5015614;28;19921;-66
2021/05/14 07:47:26;;;;;;;;;;;;;;;23.33;36.47;99412.22;5016087;28;19921;-66
2021/05/14 07:49:53;;;;;;;;;;;;;;;23.18;37.14;99422.97;5014825;28;19936;-66
2021/05/14 07:52:19;;;;;;;;;;;;;;;23.47;35.80;99432.72;5016774;28;19928;-68
2021/05/14 07:54:47;;;;;;;;;;;;;;;23.96;34.04;99420.22;5014529;28;20298;-68
2021/05/14 07:57:13;;;;;;;;;;;;;;;24.55;33.50;99427.34;5012642;28;19925;-68
2021/05/14 07:59:40;;;;;;;;;;;;;;;24.96;31.59;99417.59;5016289;28;19928;-66
2021/05/14 08:02:06;;;;;;;;;;;;;;;25.73;30.26;99424.88;5015590;28;19922;-67
2021/05/14 08:04:33;;;;;;;;;;;;;;;26.29;30.24;99438.16;5015211;28;20355;-66
2021/05/14 08:07:02;;;;;;;;;;;;;;;27.10;28.17;99428.59;5015732;28;19928;-66
2021/05/14 08:09:28;;;;;;;;;;;;;;;27.85;25.88;99428.34;5016329;28;19928;-66
2021/05/14 08:11:56;;;;;;;;;;;;;;;28.08;26.08;99426.44;5014270;28;19921;-66
2021/05/14 08:14:22;;;;;;;;;;;;;;;28.01;25.99;99424.56;5014531;28;19929;-66
2021/05/14 08:16:50;;;;;;;;;;;;;;;28.53;24.86;99428.16;5015599;28;19929;-66
2021/05/14 08:19:16;;;;;;;;;;;;;;;28.51;25.33;99419.22;5018209;28;20374;-66
2021/05/14 08:21:44;;;;;;;;;;;;;;;28.32;24.73;99429.69;5014801;28;19922;-66
2021/05/14 08:24:10;;;;;;;;;;;;;;;28.62;24.25;99425.41;5014471;28;19928;-67
2021/05/14 08:26:38;;;;;;;;;;;;;;;28.48;24.01;99425.88;5014915;28;19925;-67
2021/05/14 08:29:06;;;;;;;;;;;;;;;28.72;23.35;99418.44;5016284;28;19922;-67
2021/05/14 08:31:34;;;;;;;;;;;;;;;28.32;20.95;99424.75;5013436;28;20461;-67
2021/05/14 08:34:00;;;;;;;;;;;;;;;28.81;21.18;99422.66;5001912;28;19921;-67
2021/05/14 08:36:27;;;;;;;;;;;;;;;29.73;18.66;99418.34;5015275;28;19993;-67
2021/05/14 08:38:53;;;;;;;;;;;;;;;30.31;19.49;99419.63;5014846;28;20401;-67
2021/05/14 08:41:20;;;;;;;;;;;;;;;31.83;17.95;99422.94;5014044;28;19973;-67
2021/05/14 08:43:47;;;;;;;;;;;;;;;32.81;16.70;99410.97;5015286;28;19921;-67
2021/05/14 08:46:15;;;;;;;;;;;;;;;33.66;15.94;99407.56;5015190;28;19925;-67
2021/05/14 08:48:41;;;;;;;;;;;;;;;34.31;13.87;99410.38;5015132;28;19932;-67
2021/05/14 08:51:09;;;;;;;;;;;;;;;34.60;15.75;99417.31;5013884;28;20291;-67
2021/05/14 08:53:39;;;;;;;;;;;;;;;35.22;14.90;99411.47;5013762;28;20382;-67
2021/05/14 08:56:06;;;;;;;;;;;;;;;36.16;14.22;99407.75;5013071;28;19921;-67
2021/05/14 08:58:32;;;;;;;;;;;;;;;36.19;13.64;99416.72;5015196;28;19921;-67
2021/05/14 09:00:59;;;;;;;;;;;;;;;37.50;12.46;99411.59;5015780;28;19922;-67
2021/05/14 09:03:26;;;;;;;;;;;;;;;38.43;11.97;99405.91;5013360;28;19928;-67
2021/05/14 09:05:53;;;;;;;;;;;;;;;37.74;11.99;99401.59;5013253;28;19921;-67
2021/05/14 09:08:27;;;;;;;;;;;;;;;38.69;12.06;99418.00;5015081;28;19945;-67
2021/05/14 09:10:53;;;;;;;;;;;;;;;39.62;10.21;99409.75;5013018;28;19940;-67
2021/05/14 09:13:20;;;;;;;;;;;;;;;39.47;10.12;99409.34;5014666;28;19928;-67
2021/05/14 09:15:47;;;;;;;;;;;;;;;39.72;9.64;99419.72;5013140;28;19922;-67
2021/05/14 09:18:14;;;;;;;;;;;;;;;39.14;9.87;99414.06;5012505;28;20378;-67
2021/05/14 09:20:45;;;;;;;;;;;;;;;39.33;10.33;99408.38;5014591;28;19966;-67
2021/05/14 09:23:28;;;;;;;;;;;;;;;40.50;10.04;99416.56;5012677;28;19925;-67
2021/05/14 09:25:57;;;;;;;;;;;;;;;40.77;10.09;99424.19;5009585;28;19922;-67
2021/05/14 09:28:24;;;;;;;;;;;;;;;39.03;10.68;99420.75;5012371;28;19952;-67
2021/05/14 09:31:00;;;;;;;;;;;;;;;36.88;11.28;99423.09;5012866;28;19921;-67
2021/05/14 09:33:27;;;;;;;;;;;;;;;36.13;12.72;99422.47;5010593;28;19921;-67
2021/05/14 09:35:57;;;;;;;;;;;;;;;37.82;11.20;99416.38;5015691;28;20252;-66
2021/05/14 09:38:24;;;;;;;;;;;;;;;36.08;12.34;99420.34;5015084;28;19925;-67
2021/05/14 09:40:51;;;;;;;;;;;;;;;33.63;13.98;99427.97;5013215;28;19928;-63
2021/05/14 09:43:19;;;;;;;;;;;;;;;32.11;15.31;99425.72;5014591;28;19921;-68
2021/05/14 09:45:46;;;;;;;;;;;;;;;33.15;15.17;99423.97;5009486;28;19928;-63
2021/05/14 09:48:15;;;;;;;;;;;;;;;34.33;14.44;99425.13;5012017;28;19931;-63
2021/05/14 09:50:45;;;;;;;;;;;;;;;36.72;13.12;99429.66;5013332;28;20025;-62
2021/05/14 09:53:13;;;;;;;;;;;;;;;38.70;10.63;99413.78;5013996;28;20285;-62
2021/05/14 09:55:43;;;;;;;;;;;;;;;39.83;8.85;99423.88;5012880;28;19929;-62
2021/05/14 09:58:14;;;;;;;;;;;;;;;40.89;7.95;99424.81;5020426;28;19944;-62
2021/05/14 10:00:41;;;;;;;;;;;;;;;42.08;7.96;99423.72;5011488;28;19928;-63
2021/05/14 10:03:09;;;;;;;;;;;;;;;41.88;7.65;99425.16;5012173;28;19940;-63
2021/05/14 10:05:37;;;;;;;;;;;;;;;42.51;8.02;99416.00;5009946;28;20385;-63
2021/05/14 10:08:04;;;;;;;;;;;;;;;43.83;7.07;99411.06;5011965;28;19921;-63
2021/05/14 10:10:32;;;;;;;;;;;;;;;45.04;6.11;99410.81;5013740;28;19944;-63
2021/05/14 10:12:59;;;;;;;;;;;;;;;44.13;6.48;99407.59;5012622;28;19928;-63
2021/05/14 10:15:29;;;;;;;;;;;;;;;45.43;5.95;99394.88;5011317;28;19925;-62
2021/05/14 10:17:56;;;;;;;;;;;;;;;45.59;6.53;99407.41;5014038;28;20370;-63
2021/05/14 10:20:26;;;;;;;;;;;;;;;46.34;5.40;99404.25;5013183;28;20382;-63
2021/05/14 10:22:54;;;;;;;;;;;;;;;47.11;4.83;99401.81;5014187;28;19921;-63
2021/05/14 10:25:39;;;;;;;;;;;;;;;47.89;5.27;99411.72;5013306;28;19929;-63
2021/05/14 10:28:07;;;;;;;;;;;;;;;48.73;4.48;99410.06;5013829;28;19921;-63
2021/05/14 10:30:34;;;;;;;;;;;;;;;48.11;4.36;99392.22;5014287;28;19922;-64
2021/05/14 10:33:00;;;;;;;;;;;;;;;48.81;4.61;99403.25;5014078;28;19921;-63
2021/05/14 10:35:27;;;;;;;;;;;;;;;49.26;4.69;99395.16;5013422;28;19921;-63
2021/05/14 10:37:54;;;;;;;;;;;;;;;46.29;5.61;99403.09;5013516;28;20374;-63
2021/05/14 10:40:40;;;;;;;;;;;;;;;43.94;6.95;99399.03;5013957;28;19922;-63
2021/05/14 10:43:09;;;;;;;;;;;;;;;45.15;6.31;99402.44;5013872;28;19928;-63
2021/05/14 10:45:36;;;;;;;;;;;;;;;46.75;5.49;99399.22;5013580;28;19922;-62
2021/05/14 10:48:04;;;;;;;;;;;;;;;46.70;4.70;99392.16;5013591;28;20301;-62
2021/05/14 10:50:40;;;;;;;;;;;;;;;47.04;5.31;99393.78;5013129;28;19929;-62
2021/05/14 10:53:35;;;;;;;;;;;;;;;47.37;4.90;99400.47;5013368;28;19921;-62
2021/05/14 10:56:34;;;;;;;;;;;;;;;47.64;4.61;99387.34;5014341;28;20251;-62
2021/05/14 10:59:08;;;;;;;;;;;;;;;47.94;4.39;99383.34;4999218;28;19921;-63
2021/05/14 11:01:36;;;;;;;;;;;;;;;44.82;5.96;99398.38;5013560;28;19925;-63
2021/05/14 11:04:03;;;;;;;;;;;;;;;41.51;7.49;99388.81;5012981;28;19921;-63
2021/05/14 11:06:43;;;;;;;;;;;;;;;41.42;8.60;99397.22;5012754;28;19921;-63
2021/05/14 11:09:10;;;;;;;;;;;;;;;41.14;8.42;99386.72;5013430;28;20286;-63
2021/05/14 11:11:51;;;;;;;;;;;;;;;39.55;9.77;99390.72;5012997;28;19921;-62
2021/05/14 11:14:19;;;;;;;;;;;;;;;37.87;10.46;99396.00;5012535;28;19928;-62
2021/05/14 11:16:46;;;;;;;;;;;;;;;36.88;10.93;99394.09;5013247;28;20012;-62
2021/05/14 11:19:14;;;;;;;;;;;;;;;39.36;9.55;99390.59;5013415;28;19921;-63
2021/05/14 11:22:11;;;;;;;;;;;;;;;41.74;7.88;99380.44;5012993;28;19921;-62
2021/05/14 11:24:39;;;;;;;;;;;;;;;42.94;6.88;99373.78;5005329;28;20254;-60
2021/05/14 11:27:08;;;;;;;;;;;;;;;43.44;7.29;99376.88;5013076;28;20271;-63
2021/05/14 11:29:36;;;;;;;;;;;;;;;44.48;6.67;99378.06;5013086;28;19922;-62
2021/05/14 11:32:16;;;;;;;;;;;;;;;44.33;6.60;99385.41;5013115;28;19971;-63
2021/05/14 11:34:56;;;;;;;;;;;;;;;45.40;6.08;99375.44;5012429;28;20386;-63
2021/05/14 11:37:23;;;;;;;;;;;;;;;46.52;5.06;99372.81;5012715;28;20367;-63
2021/05/14 11:39:49;;;;;;;;;;;;;;;44.73;6.50;99385.03;5012907;28;19945;-63
2021/05/14 11:42:16;;;;;;;;;;;;;;;44.61;6.45;99386.75;5012958;28;19929;-63
2021/05/14 11:44:53;;;;;;;;;;;;;;;43.14;6.59;99373.03;5012848;28;20382;-63
2021/05/14 11:47:20;;;;;;;;;;;;;;;40.77;7.88;99382.53;5012892;28;19921;-63
2021/05/14 11:49:47;;;;;;;;;;;;;;;38.51;9.53;99377.88;5012744;28;19921;-63
2021/05/14 11:52:13;;;;;;;;;;;;;;;37.48;10.52;99382.28;5010528;28;19921;-63
2021/05/14 11:54:40;;;;;;;;;;;;;;;36.53;10.74;99377.06;5013521;28;19921;-63
2021/05/14 11:57:06;;;;;;;;;;;;;;;36.32;10.74;99377.25;5013919;28;19921;-63
2021/05/14 11:59:36;;;;;;;;;;;;;;;38.99;9.69;99373.66;5013024;28;20358;-63
2021/05/14 12:02:03;;;;;;;;;;;;;;;37.23;10.36;99372.50;5010885;28;19921;-63
2021/05/14 12:04:50;;;;;;;;;;;;;;;37.28;10.75;99371.72;5009624;28;20334;-63
2021/05/14 12:07:22;;;;;;;;;;;;;;;36.85;10.56;99371.13;5015449;28;19936;-64
2021/05/14 12:09:56;;;;;;;;;;;;;;;35.21;11.50;99378.03;5015677;28;19922;-62
2021/05/14 12:12:22;;;;;;;;;;;;;;;34.08;12.54;99370.88;5013505;28;19926;-62
2021/05/14 12:14:49;;;;;;;;;;;;;;;34.52;12.27;99373.59;5007929;28;19921;-63
2021/05/14 12:17:20;;;;;;;;;;;;;;;36.31;11.88;99374.88;5016302;28;19926;-63
2021/05/14 12:19:48;;;;;;;;;;;;;;;38.19;10.75;99375.34;5015647;28;19928;-63
2021/05/14 12:22:15;;;;;;;;;;;;;;;38.28;10.11;99366.31;5015555;28;19922;-63
2021/05/14 12:24:44;;;;;;;;;;;;;;;37.40;10.93;99369.63;5013783;28;19922;-63
2021/05/14 12:27:11;;;;;;;;;;;;;;;36.16;11.72;99377.94;5015345;28;20306;-63
2021/05/14 12:29:37;;;;;;;;;;;;;;;35.91;11.96;99371.75;5016196;28;19922;-63
2021/05/14 12:32:04;;;;;;;;;;;;;;;35.43;12.11;99386.91;5014551;28;19921;-63
2021/05/14 12:34:33;;;;;;;;;;;;;;;35.29;12.48;99376.25;5015027;28;20270;-63
2021/05/14 12:37:00;;;;;;;;;;;;;;;35.96;12.16;99373.09;5016396;28;19928;-63
2021/05/14 12:39:26;;;;;;;;;;;;;;;36.35;11.26;99370.41;5015825;28;19921;-63
2021/05/14 12:41:56;;;;;;;;;;;;;;;36.45;10.64;99367.28;5015232;28;19921;-63
2021/05/14 12:44:25;;;;;;;;;;;;;;;35.24;11.56;99372.00;5014202;28;20291;-63
2021/05/14 12:47:07;;;;;;;;;;;;;;;33.82;12.14;99380.22;5014265;28;19921;-64
2021/05/14 12:49:36;;;;;;;;;;;;;;;32.99;13.89;99378.28;5013481;28;19922;-67
2021/05/14 12:52:03;;;;;;;;;;;;;;;32.42;14.22;99367.69;5014305;28;19928;-71
2021/05/14 12:54:31;;;;;;;;;;;;;;;31.84;15.39;99378.47;5015628;28;19944;-71